Terminal Aerodrome Forecast
Issued by NWS

Home | Current Version | Previous Version | Text Only | Print | Product List | Glossary On
Versions: 1 2 3 4 5 6 7 8 9 10 11 12 13 14 15 16 17 18 19 20 21 22 23 24
000
FTUS45 KGJT 161128
TAFTEX
TAF
KTEX 161128Z 1612/1712 13005KT P6SM FEW100 SCT250
     FM161700 28005KT P6SM FEW100
     FM161900 28007KT P6SM VCTS FEW090CB SCT140
      TEMPO 1620/1623 VRB10G20KT -TSRA BKN070CB
     FM170200 14006KT P6SM SCT110 BKN180=

USA.gov is the U.S. government's official web portal to all federal, state and local government web resources and services.